Time;durP1;ratioP1;P1;durP2;ratioP2;P2;SDS_P1;SDS_P2;PMS_P1;PMS_P2;Temp;Humidity;BMP_temperature;BMP_pressure;BME280_temperature;BME280_humidity;BME280_pressure;Samples;Min_cycle;Max_cycle;Signal;HPM_P1;HPM_P2
2023/07/09 00:01:53;;;;;;;;;;;;;;;23.65;78.12;97250.90;625246;227;63857;-67
2023/07/09 00:04:21;;;;;;;;;;;;;;;23.66;78.98;97260.53;625217;227;67047;-67
2023/07/09 00:06:48;;;;;;;;;;;;;;;23.66;78.88;97247.13;625265;227;66083;-67
2023/07/09 00:09:17;;;;;;;;;;;;;;;23.65;77.57;97248.21;625231;227;64968;-67
2023/07/09 00:11:45;;;;;;;;;;;;;;;23.64;76.45;97246.59;624064;226;65037;-67
2023/07/09 00:14:14;;;;;;;;;;;;;;;23.65;76.96;97234.80;623180;227;65004;-67
2023/07/09 00:16:42;;;;;;;;;;;;;;;23.65;77.48;97240.16;623142;227;65054;-67
2023/07/09 00:19:16;;;;;;;;;;;;;;;23.64;77.46;97241.23;623175;227;67223;-67
2023/07/09 00:21:44;;;;;;;;;;;;;;;23.65;77.90;97240.16;623195;227;67063;-66
2023/07/09 00:24:13;;;;;;;;;;;;;;;23.65;77.84;97242.84;623164;227;62906;-66
2023/07/09 00:26:41;;;;;;;;;;;;;;;23.66;77.82;97246.33;623128;227;64505;-66
2023/07/09 00:29:10;;;;;;;;;;;;;;;23.65;78.01;97239.34;623143;227;64734;-66
2023/07/09 00:31:41;;;;;;;;;;;;;;;23.64;77.75;97246.59;623103;227;64816;-66
2023/07/09 00:34:11;;;;;;;;;;;;;;;23.65;77.69;97244.70;620251;227;67143;-66
2023/07/09 00:36:39;;;;;;;;;;;;;;;23.64;77.94;97246.59;623138;227;66883;-67
2023/07/09 00:39:07;;;;;;;;;;;;;;;23.64;77.85;97248.48;623160;227;62970;-67
2023/07/09 00:41:37;;;;;;;;;;;;;;;23.65;77.90;97253.58;623040;226;67137;-67
2023/07/09 00:44:18;;;;;;;;;;;;;;;23.64;77.88;97249.28;623122;227;67864;-67
2023/07/09 00:46:51;;;;;;;;;;;;;;;23.63;77.91;97239.64;623146;227;64904;-68
2023/07/09 00:49:20;;;;;;;;;;;;;;;23.64;78.01;97245.80;623201;227;67224;-68
2023/07/09 00:51:48;;;;;;;;;;;;;;;23.64;78.07;97253.84;621780;227;65089;-68
2023/07/09 00:54:18;;;;;;;;;;;;;;;23.63;77.89;97249.58;623158;227;62960;-68
2023/07/09 00:56:51;;;;;;;;;;;;;;;23.63;78.14;97255.73;623025;226;67222;-68
2023/07/09 00:59:18;;;;;;;;;;;;;;;23.63;78.21;97245.00;623105;226;66882;-68
2023/07/09 01:01:49;;;;;;;;;;;;;;;23.61;78.18;97252.53;623200;227;62631;-68
2023/07/09 01:04:16;;;;;;;;;;;;;;;23.61;77.47;97257.89;623095;226;67259;-68
2023/07/09 01:06:45;;;;;;;;;;;;;;;23.63;78.05;97261.10;623128;227;66823;-68
2023/07/09 01:09:13;;;;;;;;;;;;;;;23.61;78.37;97255.21;623005;225;65165;-68
2023/07/09 01:11:41;;;;;;;;;;;;;;;23.61;78.29;97257.89;624171;227;67060;-68
2023/07/09 01:14:09;;;;;;;;;;;;;;;23.61;78.10;97257.89;625322;227;66663;-68
2023/07/09 01:16:38;;;;;;;;;;;;;;;23.62;78.00;97264.05;625226;227;64829;-68
2023/07/09 01:19:06;;;;;;;;;;;;;;;23.61;77.41;97263.26;625245;227;67234;-68
2023/07/09 01:21:34;;;;;;;;;;;;;;;23.63;77.94;97271.04;625165;227;67283;-68
2023/07/09 01:24:13;;;;;;;;;;;;;;;23.62;77.97;97272.11;625223;227;62797;-68
2023/07/09 01:26:43;;;;;;;;;;;;;;;23.63;78.35;97277.20;625224;227;67258;-67
2023/07/09 01:29:12;;;;;;;;;;;;;;;23.62;78.29;97272.11;625287;227;66809;-67
2023/07/09 01:31:39;;;;;;;;;;;;;;;23.62;78.86;97272.11;625212;227;65000;-67
2023/07/09 01:34:07;;;;;;;;;;;;;;;23.62;78.69;97280.95;625170;227;67227;-67
2023/07/09 01:36:39;;;;;;;;;;;;;;;23.61;78.01;97291.98;625217;227;66847;-67
2023/07/09 01:39:04;;;;;;;;;;;;;;;23.60;78.02;97284.98;625163;226;65032;-67
2023/07/09 01:41:34;;;;;;;;;;;;;;;23.60;78.01;97288.50;625268;227;64351;-67
2023/07/09 01:44:01;;;;;;;;;;;;;;;23.60;78.28;97288.50;625233;227;67724;-67
2023/07/09 01:46:30;;;;;;;;;;;;;;;23.61;78.31;97298.14;625183;227;65819;-67
2023/07/09 01:48:59;;;;;;;;;;;;;;;23.61;78.76;97298.14;625199;226;45859;-68
2023/07/09 01:51:28;;;;;;;;;;;;;;;23.60;78.80;97298.41;625244;227;65033;-68
2023/07/09 01:53:55;;;;;;;;;;;;;;;23.60;78.28;97301.91;625265;227;65840;-68
2023/07/09 01:56:24;;;;;;;;;;;;;;;23.60;77.77;97301.09;625297;227;67032;-68
2023/07/09 01:58:51;;;;;;;;;;;;;;;23.59;77.85;97305.66;625215;227;64493;-68
2023/07/09 02:01:20;;;;;;;;;;;;;;;23.59;78.43;97302.97;625211;227;65411;-68
2023/07/09 02:03:47;;;;;;;;;;;;;;;23.60;78.77;97304.59;625256;227;67025;-68
2023/07/09 02:06:15;;;;;;;;;;;;;;;23.61;78.91;97308.08;625240;227;64763;-68
2023/07/09 02:08:43;;;;;;;;;;;;;;;23.60;78.46;97306.45;625314;227;65718;-68
2023/07/09 02:11:10;;;;;;;;;;;;;;;23.59;78.44;97302.97;624781;226;67386;-68
2023/07/09 02:13:38;;;;;;;;;;;;;;;23.59;78.87;97302.97;623855;227;66881;-68
2023/07/09 02:16:06;;;;;;;;;;;;;;;23.59;78.71;97307.55;623883;227;62635;-68
2023/07/09 02:18:33;;;;;;;;;;;;;;;23.59;78.03;97308.34;623852;227;64696;-68
2023/07/09 02:21:01;;;;;;;;;;;;;;;23.59;78.30;97307.55;623878;227;64597;-68
2023/07/09 02:23:29;;;;;;;;;;;;;;;23.60;79.29;97304.59;623862;227;62742;-68
2023/07/09 02:25:58;;;;;;;;;;;;;;;23.59;79.52;97311.02;620915;227;70160;-68
2023/07/09 02:28:25;;;;;;;;;;;;;;;23.60;78.97;97314.50;623848;227;64667;-68
2023/07/09 02:30:53;;;;;;;;;;;;;;;23.59;78.93;97308.34;623854;227;63631;-68
2023/07/09 02:33:20;;;;;;;;;;;;;;;23.58;78.65;97314.80;623883;227;67908;-68
2023/07/09 02:35:48;;;;;;;;;;;;;;;23.57;78.33;97313.20;623839;227;67145;-68
2023/07/09 02:38:15;;;;;;;;;;;;;;;23.58;78.73;97317.48;623848;227;65801;-68
2023/07/09 02:40:43;;;;;;;;;;;;;;;23.59;78.97;97318.28;623814;227;67954;-68
2023/07/09 02:43:11;;;;;;;;;;;;;;;23.59;79.33;97318.28;623842;227;64590;-68
2023/07/09 02:45:39;;;;;;;;;;;;;;;23.59;79.54;97318.28;623883;227;65823;-68
2023/07/09 02:48:06;;;;;;;;;;;;;;;23.59;79.71;97320.96;623837;227;64820;-68
2023/07/09 02:50:35;;;;;;;;;;;;;;;23.58;79.59;97317.48;623888;226;44971;-68
2023/07/09 02:53:03;;;;;;;;;;;;;;;23.59;79.68;97324.44;623900;227;64993;-68
2023/07/09 02:55:31;;;;;;;;;;;;;;;23.57;79.26;97318.58;623863;227;64486;-68
2023/07/09 02:57:58;;;;;;;;;;;;;;;23.57;79.17;97313.20;623866;227;66871;-68
2023/07/09 03:00:26;;;;;;;;;;;;;;;23.58;79.44;97319.37;623897;227;63486;-68
2023/07/09 03:02:53;;;;;;;;;;;;;;;23.57;79.45;97318.58;623880;227;65119;-68
2023/07/09 03:05:21;;;;;;;;;;;;;;;23.57;79.66;97313.20;623855;227;66801;-68
2023/07/09 03:07:48;;;;;;;;;;;;;;;23.58;79.51;97316.69;623822;227;65017;-68
2023/07/09 03:10:16;;;;;;;;;;;;;;;23.57;79.35;97315.89;623886;227;66706;-68
2023/07/09 03:12:44;;;;;;;;;;;;;;;23.56;79.21;97314.27;625199;227;66828;-68
2023/07/09 03:15:12;;;;;;;;;;;;;;;23.56;79.07;97316.16;625259;227;62895;-68
2023/07/09 03:17:39;;;;;;;;;;;;;;;23.57;78.88;97321.26;625297;227;64802;-68
2023/07/09 03:20:07;;;;;;;;;;;;;;;23.57;79.07;97321.26;625238;227;66929;-68
2023/07/09 03:22:35;;;;;;;;;;;;;;;23.57;79.25;97321.26;625237;227;65032;-68
2023/07/09 03:25:02;;;;;;;;;;;;;;;23.56;79.32;97325.00;625270;227;64982;-68
2023/07/09 03:27:30;;;;;;;;;;;;;;;23.56;79.12;97324.20;625227;227;66761;-68
2023/07/09 03:30:00;;;;;;;;;;;;;;;23.57;79.33;97329.30;625254;227;62892;-68
2023/07/09 03:32:28;;;;;;;;;;;;;;;23.55;79.29;97333.34;625250;227;65033;-68
2023/07/09 03:34:55;;;;;;;;;;;;;;;23.56;79.45;97332.25;625209;227;64817;-68
2023/07/09 03:37:23;;;;;;;;;;;;;;;23.57;79.55;97339.21;625296;227;63784;-68
2023/07/09 03:39:50;;;;;;;;;;;;;;;23.55;79.48;97334.14;625257;227;64813;-68
2023/07/09 03:42:17;;;;;;;;;;;;;;;23.55;79.67;97334.14;625258;227;64642;-68
2023/07/09 03:44:45;;;;;;;;;;;;;;;23.55;79.70;97336.03;625262;227;64997;-68
2023/07/09 03:47:13;;;;;;;;;;;;;;;23.55;79.71;97336.83;625219;227;67210;-68
2023/07/09 03:49:41;;;;;;;;;;;;;;;23.55;79.63;97342.19;625261;227;67328;-68
2023/07/09 03:52:09;;;;;;;;;;;;;;;23.55;79.52;97339.50;625258;227;65050;-68
2023/07/09 03:54:36;;;;;;;;;;;;;;;23.54;79.49;97343.25;625273;227;67175;-67
2023/07/09 03:57:04;;;;;;;;;;;;;;;23.55;79.61;97334.14;625263;227;66984;-67
2023/07/09 03:59:32;;;;;;;;;;;;;;;23.54;79.57;97340.56;625240;227;65046;-66
2023/07/09 04:02:01;;;;;;;;;;;;;;;23.54;79.55;97343.25;625242;227;67176;-67
2023/07/09 04:04:28;;;;;;;;;;;;;;;23.54;79.63;97345.14;625302;227;64777;-66
2023/07/09 04:06:56;;;;;;;;;;;;;;;23.54;79.54;97348.62;625294;227;63682;-66
2023/07/09 04:09:23;;;;;;;;;;;;;;;23.54;79.35;97351.30;625274;227;66614;-67
2023/07/09 04:11:51;;;;;;;;;;;;;;;23.54;79.19;97347.82;623987;224;66825;-67
2023/07/09 04:14:18;;;;;;;;;;;;;;;23.54;79.29;97342.45;623172;227;62859;-67
2023/07/09 04:16:46;;;;;;;;;;;;;;;23.53;79.17;97338.98;623200;227;67194;-67
2023/07/09 04:19:13;;;;;;;;;;;;;;;23.53;78.81;97346.23;623164;227;66758;-66
2023/07/09 04:21:40;;;;;;;;;;;;;;;23.52;78.34;97342.75;623179;227;65042;-67
2023/07/09 04:24:09;;;;;;;;;;;;;;;23.53;78.61;97351.59;623137;227;67051;-67
2023/07/09 04:26:38;;;;;;;;;;;;;;;23.54;78.96;97343.25;623171;227;66807;-66
2023/07/09 04:29:06;;;;;;;;;;;;;;;23.53;78.93;97341.66;623196;227;64857;-66
2023/07/09 04:31:34;;;;;;;;;;;;;;;23.52;78.91;97345.44;623180;227;66872;-66
2023/07/09 04:34:01;;;;;;;;;;;;;;;23.52;78.62;97348.12;623174;227;66650;-66
2023/07/09 04:36:29;;;;;;;;;;;;;;;23.53;78.91;97346.23;623146;227;62646;-67
2023/07/09 04:38:56;;;;;;;;;;;;;;;23.54;79.32;97345.93;623110;227;66575;-68
2023/07/09 04:41:24;;;;;;;;;;;;;;;23.52;79.12;97348.12;623223;227;64694;-68
2023/07/09 04:43:51;;;;;;;;;;;;;;;23.52;78.79;97356.16;623127;227;65055;-68
2023/07/09 04:46:19;;;;;;;;;;;;;;;23.52;78.96;97356.16;623173;227;66976;-68
2023/07/09 04:48:46;;;;;;;;;;;;;;;23.54;79.13;97363.92;623153;227;64608;-68
2023/07/09 04:51:14;;;;;;;;;;;;;;;23.52;79.08;97364.21;623180;227;63002;-68
2023/07/09 04:53:42;;;;;;;;;;;;;;;23.52;79.19;97361.53;623216;227;64484;-68
2023/07/09 04:56:09;;;;;;;;;;;;;;;23.53;79.11;97362.33;623220;227;67267;-68
2023/07/09 04:58:37;;;;;;;;;;;;;;;23.52;79.06;97366.89;623180;227;65031;-68
2023/07/09 05:01:04;;;;;;;;;;;;;;;23.52;78.69;97366.07;623159;227;66831;-68
2023/07/09 05:03:32;;;;;;;;;;;;;;;23.52;78.80;97366.89;623125;227;66898;-68
2023/07/09 05:05:59;;;;;;;;;;;;;;;23.52;78.80;97368.75;623178;227;64979;-67
2023/07/09 05:08:27;;;;;;;;;;;;;;;23.51;78.75;97377.89;623212;227;64675;-68
2023/07/09 05:10:55;;;;;;;;;;;;;;;23.51;78.99;97365.27;623524;227;66739;-68
2023/07/09 05:13:22;;;;;;;;;;;;;;;23.51;79.11;97367.95;625251;227;64804;-68
2023/07/09 05:15:50;;;;;;;;;;;;;;;23.52;79.26;97368.75;625257;227;64675;-68
2023/07/09 05:18:18;;;;;;;;;;;;;;;23.52;79.34;97368.75;625250;227;64717;-68
2023/07/09 05:20:47;;;;;;;;;;;;;;;23.51;79.37;97367.95;625301;227;65147;-68
2023/07/09 05:23:14;;;;;;;;;;;;;;;23.50;79.19;97369.05;625216;227;66748;-68
2023/07/09 05:25:42;;;;;;;;;;;;;;;23.51;79.75;97376.00;625240;227;66823;-68
2023/07/09 05:28:09;;;;;;;;;;;;;;;23.51;80.01;97367.95;625214;227;65058;-68
2023/07/09 05:30:37;;;;;;;;;;;;;;;23.51;79.62;97365.27;625251;227;64877;-68
2023/07/09 05:33:04;;;;;;;;;;;;;;;23.51;79.32;97375.20;625300;227;64413;-68
2023/07/09 05:35:31;;;;;;;;;;;;;;;23.51;79.19;97375.20;625239;227;63003;-68
2023/07/09 05:37:59;;;;;;;;;;;;;;;23.51;79.09;97375.20;625216;227;66933;-68
2023/07/09 05:40:26;;;;;;;;;;;;;;;23.50;79.07;97374.41;625253;227;64760;-68
2023/07/09 05:42:54;;;;;;;;;;;;;;;23.50;78.90;97377.09;625245;227;63891;-68
2023/07/09 05:45:21;;;;;;;;;;;;;;;23.50;78.72;97379.78;625331;227;66924;-68
2023/07/09 05:47:49;;;;;;;;;;;;;;;23.50;79.09;97377.09;625246;227;64746;-68
2023/07/09 05:50:16;;;;;;;;;;;;;;;23.51;79.06;97375.20;625221;227;62875;-68
2023/07/09 05:52:44;;;;;;;;;;;;;;;23.49;79.10;97373.62;625226;227;66862;-68
2023/07/09 05:55:11;;;;;;;;;;;;;;;23.50;79.32;97374.41;625253;227;66844;-68
2023/07/09 05:57:39;;;;;;;;;;;;;;;23.50;79.40;97363.69;625303;227;63818;-68
2023/07/09 06:00:08;;;;;;;;;;;;;;;23.51;79.26;97367.16;625309;227;64663;-68
2023/07/09 06:02:43;;;;;;;;;;;;;;;23.49;79.05;97367.45;625234;227;67190;-68
2023/07/09 06:05:11;;;;;;;;;;;;;;;23.49;78.91;97370.14;625227;227;65109;-68
2023/07/09 06:07:38;;;;;;;;;;;;;;;23.49;78.94;97364.77;625279;227;66913;-68
2023/07/09 06:10:07;;;;;;;;;;;;;;;23.49;79.15;97364.77;625265;227;66481;-68
2023/07/09 06:12:35;;;;;;;;;;;;;;;23.47;78.38;97365.04;624023;226;65305;-68
2023/07/09 06:15:03;;;;;;;;;;;;;;;23.48;79.22;97360.47;623848;227;64681;-68
2023/07/09 06:17:30;;;;;;;;;;;;;;;23.50;79.64;97358.31;623798;225;64854;-68
2023/07/09 06:19:58;;;;;;;;;;;;;;;23.51;80.46;97365.27;623847;227;62954;-68
2023/07/09 06:22:25;;;;;;;;;;;;;;;23.51;80.75;97359.91;623833;227;64697;-68
2023/07/09 06:24:54;;;;;;;;;;;;;;;23.51;80.22;97365.27;623863;227;64765;-68
2023/07/09 06:27:23;;;;;;;;;;;;;;;23.51;79.51;97361.80;623833;227;65013;-68
2023/07/09 06:29:51;;;;;;;;;;;;;;;23.51;79.09;97364.48;623838;227;66790;-68
2023/07/09 06:32:18;;;;;;;;;;;;;;;23.52;79.37;97358.02;623845;227;66833;-68
2023/07/09 06:34:46;;;;;;;;;;;;;;;23.50;79.02;97355.63;623844;227;65032;-68
2023/07/09 06:37:13;;;;;;;;;;;;;;;23.51;78.97;97357.22;623889;227;66714;-68
2023/07/09 06:39:41;;;;;;;;;;;;;;;23.52;78.92;97358.02;623867;227;66893;-68
2023/07/09 06:42:08;;;;;;;;;;;;;;;23.51;79.00;97354.55;623831;227;65059;-68
2023/07/09 06:44:38;;;;;;;;;;;;;;;23.52;78.91;97350.80;622001;227;48117;-68
2023/07/09 06:47:05;;;;;;;;;;;;;;;23.52;79.03;97360.70;623835;227;66815;-68
2023/07/09 06:49:33;;;;;;;;;;;;;;;23.52;78.94;97353.48;623833;227;64979;-68
2023/07/09 06:52:01;;;;;;;;;;;;;;;23.53;78.98;97346.23;623922;227;64672;-68
2023/07/09 06:54:28;;;;;;;;;;;;;;;23.53;79.06;97351.59;623862;227;66569;-68
2023/07/09 06:56:55;;;;;;;;;;;;;;;23.53;78.85;97343.55;623853;227;62928;-68
2023/07/09 06:59:23;;;;;;;;;;;;;;;23.53;78.91;97349.70;623877;227;66668;-66
2023/07/09 07:01:50;;;;;;;;;;;;;;;23.53;78.88;97347.02;623893;227;64333;-67
2023/07/09 07:04:18;;;;;;;;;;;;;;;23.53;79.16;97352.39;623954;227;65020;-66
2023/07/09 07:06:45;;;;;;;;;;;;;;;23.55;79.54;97352.12;623859;227;66719;-67
2023/07/09 07:09:13;;;;;;;;;;;;;;;23.55;79.42;97352.92;623797;227;66521;-67
2023/07/09 07:11:40;;;;;;;;;;;;;;;23.54;79.24;97342.45;624559;227;64967;-66
2023/07/09 07:14:08;;;;;;;;;;;;;;;23.55;79.30;97346.76;625353;227;66719;-67
2023/07/09 07:16:35;;;;;;;;;;;;;;;23.55;79.25;97350.23;625324;227;64428;-66
2023/07/09 07:19:03;;;;;;;;;;;;;;;23.54;79.08;97347.82;625283;227;63043;-67
2023/07/09 07:21:30;;;;;;;;;;;;;;;23.55;79.31;97344.88;625264;227;66640;-67
2023/07/09 07:23:58;;;;;;;;;;;;;;;23.54;78.97;97348.62;625283;227;66477;-66
2023/07/09 07:26:25;;;;;;;;;;;;;;;23.54;79.02;97348.62;625210;227;65027;-67
2023/07/09 07:28:53;;;;;;;;;;;;;;;23.55;78.99;97344.88;625299;227;64710;-67
2023/07/09 07:31:20;;;;;;;;;;;;;;;23.55;78.75;97350.23;625245;227;67113;-67
2023/07/09 07:33:49;;;;;;;;;;;;;;;23.55;78.63;97350.23;625242;227;65071;-67
2023/07/09 07:36:16;;;;;;;;;;;;;;;23.55;78.69;97344.88;625222;227;66774;-67
2023/07/09 07:38:44;;;;;;;;;;;;;;;23.54;78.58;97348.62;625256;227;66764;-67
2023/07/09 07:41:11;;;;;;;;;;;;;;;23.55;78.35;97344.88;625307;227;62983;-67
2023/07/09 07:43:39;;;;;;;;;;;;;;;23.55;78.41;97336.83;625276;227;64586;-66
2023/07/09 07:46:07;;;;;;;;;;;;;;;23.55;78.41;97336.83;625289;227;64744;-66
2023/07/09 07:48:35;;;;;;;;;;;;;;;23.55;78.35;97336.83;625265;227;65060;-66
2023/07/09 07:51:03;;;;;;;;;;;;;;;23.55;78.40;97336.83;625261;227;64276;-67
2023/07/09 07:53:31;;;;;;;;;;;;;;;23.55;78.43;97339.50;625315;227;64731;-66
2023/07/09 07:55:59;;;;;;;;;;;;;;;23.55;78.23;97339.50;625245;227;65026;-66
2023/07/09 07:58:27;;;;;;;;;;;;;;;23.56;77.95;97334.94;625261;227;67259;-67
2023/07/09 08:00:58;;;;;;;;;;;;;;;23.56;77.90;97334.94;625256;227;66978;-67
2023/07/09 08:03:25;;;;;;;;;;;;;;;23.56;78.39;97340.30;625253;227;63052;-68
2023/07/09 08:05:53;;;;;;;;;;;;;;;23.56;78.41;97330.36;625304;227;66876;-65
2023/07/09 08:08:20;;;;;;;;;;;;;;;23.56;78.58;97341.09;625257;227;66784;-67
2023/07/09 08:10:51;;;;;;;;;;;;;;;23.58;78.49;97338.15;624992;226;63107;-67
2023/07/09 08:13:19;;;;;;;;;;;;;;;23.57;78.14;97342.72;623517;226;67177;-65
2023/07/09 08:15:47;;;;;;;;;;;;;;;23.56;77.95;97335.73;623826;227;67046;-65
2023/07/09 08:18:14;;;;;;;;;;;;;;;23.56;78.01;97334.94;623819;227;65058;-65
2023/07/09 08:20:44;;;;;;;;;;;;;;;23.57;78.49;97337.35;623882;227;64934;-66
2023/07/09 08:23:12;;;;;;;;;;;;;;;23.57;78.70;97334.67;623726;226;66884;-66
2023/07/09 08:25:39;;;;;;;;;;;;;;;23.57;78.57;97329.30;623839;227;63010;-66
2023/07/09 08:28:06;;;;;;;;;;;;;;;23.57;78.67;97321.26;623837;227;64856;-66
2023/07/09 08:30:34;;;;;;;;;;;;;;;23.57;78.71;97321.26;623837;227;64871;-66
2023/07/09 08:33:02;;;;;;;;;;;;;;;23.58;78.73;97322.05;623869;227;65040;-66
2023/07/09 08:35:29;;;;;;;;;;;;;;;23.57;78.79;97326.63;623805;227;64998;-66
2023/07/09 08:37:57;;;;;;;;;;;;;;;23.58;78.60;97317.48;623871;227;66717;-66
2023/07/09 08:40:24;;;;;;;;;;;;;;;23.58;78.69;97325.53;623822;227;64843;-66
2023/07/09 08:42:53;;;;;;;;;;;;;;;23.58;78.46;97322.05;623817;227;67195;-66
2023/07/09 08:45:23;;;;;;;;;;;;;;;23.57;78.59;97321.26;623812;227;65212;-66
2023/07/09 08:47:54;;;;;;;;;;;;;;;23.57;78.51;97318.58;623836;227;62915;-66
2023/07/09 08:50:23;;;;;;;;;;;;;;;23.57;78.49;97321.26;623746;226;64938;-66
2023/07/09 08:52:52;;;;;;;;;;;;;;;23.58;78.45;97328.21;623831;227;67017;-66
2023/07/09 08:55:21;;;;;;;;;;;;;;;23.58;78.43;97322.84;623845;227;62681;-66
2023/07/09 08:57:53;;;;;;;;;;;;;;;23.57;78.27;97326.63;623571;226;65031;-66
2023/07/09 09:00:25;;;;;;;;;;;;;;;23.57;78.25;97323.94;623616;226;66905;-67
2023/07/09 09:02:54;;;;;;;;;;;;;;;23.59;78.55;97320.96;623880;225;62968;-67
2023/07/09 09:05:22;;;;;;;;;;;;;;;23.57;78.20;97331.98;623831;227;64595;-67
2023/07/09 09:07:51;;;;;;;;;;;;;;;23.58;78.14;97333.58;623787;227;67035;-67
2023/07/09 09:10:20;;;;;;;;;;;;;;;23.57;78.25;97331.98;623758;227;63055;-67
2023/07/09 09:13:02;;;;;;;;;;;;;;;23.57;77.92;97337.35;623877;227;67431;-67
2023/07/09 09:15:30;;;;;;;;;;;;;;;23.57;77.88;97334.67;623835;226;66878;-67
2023/07/09 09:17:59;;;;;;;;;;;;;;;23.58;77.83;97335.47;623886;227;65058;-67
2023/07/09 09:20:28;;;;;;;;;;;;;;;23.58;77.75;97336.26;623926;227;64909;-68
2023/07/09 09:22:57;;;;;;;;;;;;;;;23.58;77.89;97336.26;623826;227;67036;-68
2023/07/09 09:25:29;;;;;;;;;;;;;;;23.58;77.92;97338.95;623361;227;62970;-68
2023/07/09 09:27:56;;;;;;;;;;;;;;;23.58;78.05;97338.95;623955;227;67228;-67
2023/07/09 09:30:25;;;;;;;;;;;;;;;23.57;77.79;97342.72;623848;227;67016;-67
2023/07/09 09:32:54;;;;;;;;;;;;;;;23.58;77.78;97341.63;623887;227;65048;-67
2023/07/09 09:35:23;;;;;;;;;;;;;;;23.58;78.20;97344.31;623810;225;67238;-67
2023/07/09 09:37:52;;;;;;;;;;;;;;;23.58;78.18;97338.15;622524;224;67036;-67
2023/07/09 09:40:23;;;;;;;;;;;;;;;23.58;77.87;97346.20;618035;224;64976;-67
2023/07/09 09:42:51;;;;;;;;;;;;;;;23.59;77.95;97339.73;616740;229;64871;-67
2023/07/09 09:45:20;;;;;;;;;;;;;;;23.58;78.01;97343.52;616741;229;66887;-67
2023/07/09 09:47:49;;;;;;;;;;;;;;;23.58;78.25;97344.31;616758;229;63810;-67
2023/07/09 09:50:21;;;;;;;;;;;;;;;23.58;77.88;97338.95;616743;229;67224;-67
2023/07/09 09:52:49;;;;;;;;;;;;;;;23.58;77.69;97344.31;616696;229;66812;-67
2023/07/09 09:55:21;;;;;;;;;;;;;;;23.58;77.68;97338.15;616919;229;62689;-67
2023/07/09 09:57:49;;;;;;;;;;;;;;;23.58;77.61;97333.58;616798;229;67205;-67
2023/07/09 10:00:17;;;;;;;;;;;;;;;23.59;77.53;97340.53;616714;229;67374;-67
2023/07/09 10:02:45;;;;;;;;;;;;;;;23.58;77.43;97341.63;616758;229;65036;-68
2023/07/09 10:05:14;;;;;;;;;;;;;;;23.58;77.63;97338.95;616543;229;64845;-67
2023/07/09 10:07:55;;;;;;;;;;;;;;;23.59;77.34;97342.42;618768;227;67033;-67
2023/07/09 10:10:24;;;;;;;;;;;;;;;23.59;77.24;97350.47;617136;224;65010;-67
2023/07/09 10:12:53;;;;;;;;;;;;;;;23.58;77.19;97348.87;605585;232;67107;-67
2023/07/09 10:15:28;;;;;;;;;;;;;;;23.58;77.40;97346.99;605311;232;67024;-67
2023/07/09 10:17:57;;;;;;;;;;;;;;;23.59;77.64;97350.47;604798;234;63562;-67
2023/07/09 10:20:44;;;;;;;;;;;;;;;23.58;77.58;97346.99;604796;234;64606;-66
2023/07/09 10:23:16;;;;;;;;;;;;;;;23.58;77.87;97344.31;605122;232;64934;-66
2023/07/09 10:25:48;;;;;;;;;;;;;;;23.58;77.78;97349.67;604721;232;65038;-66
2023/07/09 10:28:23;;;;;;;;;;;;;;;23.59;77.60;97347.78;604976;232;67543;-66
2023/07/09 10:30:52;;;;;;;;;;;;;;;23.58;77.74;97344.31;605374;232;64893;-66
2023/07/09 10:33:27;;;;;;;;;;;;;;;23.57;77.68;97342.72;605072;232;65194;-66
2023/07/09 10:36:02;;;;;;;;;;;;;;;23.58;77.43;97349.67;605332;234;67197;-66
2023/07/09 10:38:43;;;;;;;;;;;;;;;23.58;77.48;97338.95;604690;234;67044;-66
2023/07/09 10:41:12;;;;;;;;;;;;;;;23.58;77.41;97344.31;594710;234;65308;-66
2023/07/09 10:43:41;;;;;;;;;;;;;;;23.58;77.36;97335.47;605660;234;65010;-66
2023/07/09 10:46:14;;;;;;;;;;;;;;;23.57;77.38;97337.35;605194;234;67029;-67
2023/07/09 10:48:43;;;;;;;;;;;;;;;23.58;77.85;97341.63;605314;234;65094;-67
2023/07/09 10:51:12;;;;;;;;;;;;;;;23.58;77.91;97344.31;605851;232;65276;-67
2023/07/09 10:53:41;;;;;;;;;;;;;;;23.58;77.58;97338.95;605134;232;64853;-67
2023/07/09 10:56:12;;;;;;;;;;;;;;;23.58;77.08;97341.63;605603;233;62917;-67
2023/07/09 10:58:48;;;;;;;;;;;;;;;23.58;76.75;97338.95;605642;232;67353;-67
2023/07/09 11:01:16;;;;;;;;;;;;;;;23.59;76.85;97339.73;605634;234;67010;-67
2023/07/09 11:03:44;;;;;;;;;;;;;;;23.59;77.19;97340.53;605599;234;64849;-67
2023/07/09 11:06:17;;;;;;;;;;;;;;;23.58;77.21;97344.31;605685;232;67232;-67
2023/07/09 11:08:46;;;;;;;;;;;;;;;23.58;77.12;97344.31;605383;234;64536;-67
2023/07/09 11:11:15;;;;;;;;;;;;;;;23.59;76.75;97347.78;609782;229;65055;-67
2023/07/09 11:13:44;;;;;;;;;;;;;;;23.60;77.06;97341.33;618127;229;66970;-67
2023/07/09 11:16:13;;;;;;;;;;;;;;;23.60;76.40;97346.70;618147;229;67027;-67
2023/07/09 11:18:40;;;;;;;;;;;;;;;23.60;76.34;97346.70;618141;229;65186;-67
2023/07/09 11:21:09;;;;;;;;;;;;;;;23.60;76.39;97336.79;618167;229;66866;-67
2023/07/09 11:23:41;;;;;;;;;;;;;;;23.60;76.12;97341.33;618210;229;64686;-67
2023/07/09 11:26:16;;;;;;;;;;;;;;;23.60;76.40;97342.16;617793;229;65128;-67
2023/07/09 11:28:45;;;;;;;;;;;;;;;23.60;76.82;97339.47;617991;229;64672;-68
2023/07/09 11:31:20;;;;;;;;;;;;;;;23.60;76.63;97336.79;617928;229;65108;-68
2023/07/09 11:33:48;;;;;;;;;;;;;;;23.60;76.57;97336.79;618117;228;64888;-68
2023/07/09 11:36:17;;;;;;;;;;;;;;;23.61;77.08;97332.22;618066;228;64680;-68
2023/07/09 11:38:48;;;;;;;;;;;;;;;23.60;76.86;97331.42;617410;229;44425;-68
2023/07/09 11:41:29;;;;;;;;;;;;;;;23.60;76.74;97331.42;618116;229;65208;-67
2023/07/09 11:44:16;;;;;;;;;;;;;;;23.61;77.04;97329.53;618123;229;65011;-68
2023/07/09 11:46:49;;;;;;;;;;;;;;;23.61;77.21;97326.86;618129;229;67108;-67
2023/07/09 11:49:18;;;;;;;;;;;;;;;23.60;77.09;97323.38;607395;229;62997;-68
2023/07/09 11:51:49;;;;;;;;;;;;;;;23.59;76.84;97321.75;618111;229;67178;-68
2023/07/09 11:54:18;;;;;;;;;;;;;;;23.60;76.54;97325.23;618190;229;67042;-68
2023/07/09 11:56:47;;;;;;;;;;;;;;;23.60;76.52;97319.87;618150;229;63097;-68
2023/07/09 11:59:14;;;;;;;;;;;;;;;23.60;76.53;97311.82;617383;229;64981;-68
2023/07/09 12:01:46;;;;;;;;;;;;;;;23.59;76.52;97312.91;618137;229;64948;-68
2023/07/09 12:04:15;;;;;;;;;;;;;;;23.60;76.40;97315.33;623198;227;64912;-68
2023/07/09 12:06:44;;;;;;;;;;;;;;;23.60;76.42;97315.33;619804;226;64917;-68
2023/07/09 12:09:18;;;;;;;;;;;;;;;23.60;76.29;97314.50;618181;229;67047;-68
2023/07/09 12:11:47;;;;;;;;;;;;;;;23.60;76.55;97306.45;617260;229;64909;-68
2023/07/09 12:14:19;;;;;;;;;;;;;;;23.60;76.10;97315.33;616715;230;67270;-67
2023/07/09 12:16:54;;;;;;;;;;;;;;;23.61;76.19;97308.08;616481;230;67161;-67
2023/07/09 12:19:22;;;;;;;;;;;;;;;23.60;76.77;97304.59;616719;230;65034;-67
2023/07/09 12:21:53;;;;;;;;;;;;;;;23.60;76.63;97304.59;616770;230;67160;-67
2023/07/09 12:24:22;;;;;;;;;;;;;;;23.61;76.53;97302.70;620192;224;66680;-67
2023/07/09 12:26:53;;;;;;;;;;;;;;;23.61;76.22;97294.66;622275;227;65081;-67
2023/07/09 12:29:22;;;;;;;;;;;;;;;23.61;76.31;97294.66;623852;227;67259;-65
2023/07/09 12:31:50;;;;;;;;;;;;;;;23.61;76.79;97300.82;623362;226;67378;-65
2023/07/09 12:34:18;;;;;;;;;;;;;;;23.61;76.38;97300.82;623712;227;65023;-65
2023/07/09 12:36:47;;;;;;;;;;;;;;;23.60;76.15;97288.50;623859;227;67046;-65
2023/07/09 12:39:16;;;;;;;;;;;;;;;23.61;76.31;97282.04;623820;227;64976;-66
2023/07/09 12:41:45;;;;;;;;;;;;;;;23.61;76.82;97279.36;623860;226;46485;-66
2023/07/09 12:44:18;;;;;;;;;;;;;;;23.61;76.68;97279.36;623843;227;66886;-66
2023/07/09 12:46:46;;;;;;;;;;;;;;;23.60;76.42;97283.13;623794;227;66986;-66
2023/07/09 12:49:15;;;;;;;;;;;;;;;23.61;76.13;97282.04;623873;227;65026;-66
2023/07/09 12:51:42;;;;;;;;;;;;;;;23.61;76.07;97278.56;622602;227;64671;-66
2023/07/09 12:54:18;;;;;;;;;;;;;;;23.61;76.05;97279.36;623805;227;64917;-66
2023/07/09 12:56:46;;;;;;;;;;;;;;;23.62;76.15;97278.27;623813;227;63166;-66